This is the latest recevied weather packets stored in our database for station/object NZ3C. If no packets are shown the sender has not sent any weather packets the latest 10 day(s).
| Time | Temp. | Humidity | Pressure | Rain* | Wind** | Luminosity | Snow |
|---|---|---|---|---|---|---|---|
| 1777988191 | 22.22° C | 59% | 1019.3 hPa | 0 mm | - | 489 W/m² | - |
| 1777987887 | 21.67° C | 58% | 1019.4 hPa | 0 mm | - | 484 W/m² | - |
| 1777987583 | 21.67° C | 60% | 1019.3 hPa | 0 mm | - | 470 W/m² | - |
| 1777987281 | 21.11° C | 61% | 1019.2 hPa | 0 mm | - | 459 W/m² | - |
| 1777986978 | 20.56° C | 62% | 1019.3 hPa | 0 mm | - | 445 W/m² | - |
| 1777986676 | 21.11° C | 61% | 1019.1 hPa | 0 mm | - | 421 W/m² | - |
| 1777986373 | 21.11° C | 60% | 1019.6 hPa | 0 mm | - | 409 W/m² | - |
| 1777986072 | 20.56° C | 62% | 1019.5 hPa | 0 mm | - | 394 W/m² | - |
| 1777985768 | 20.56° C | 63% | 1019.4 hPa | 0 mm | - | 380 W/m² | - |
| 1777985465 | 20.56° C | 62% | 1019.6 hPa | 0 mm | - | 362 W/m² | - |
| 1777985161 | 20° C | 65% | 1019.5 hPa | 0 mm | - | 344 W/m² | - |
| 1777984857 | 19.44° C | 65% | 1019.6 hPa | 0 mm | - | 325 W/m² | - |
| 1777984554 | 18.89° C | 67% | 1019.7 hPa | 0 mm | - | 306 W/m² | - |
| 1777984250 | 18.89° C | 67% | 1019.6 hPa | 0 mm | - | 281 W/m² | - |
| 1777983947 | 18.89° C | 68% | 1019.6 hPa | 0 mm | - | 221 W/m² | - |
| 1777983644 | 18.33° C | 69% | 1019.5 hPa | 0 mm | - | 235 W/m² | - |
| 1777983341 | 18.33° C | 69% | 1019.3 hPa | 0 mm | - | 228 W/m² | - |
| 1777983038 | 18.33° C | 70% | 1019.3 hPa | 0 mm | - | 235 W/m² | - |
| 1777982734 | 17.78° C | 71% | 1019.2 hPa | 0 mm | - | 214 W/m² | - |
| 1777982430 | 16.67° C | 75% | 1019.2 hPa | 0 mm | - | 200 W/m² | - |
| 1777982124 | 16.11° C | 78% | 1019.3 hPa | 0 mm | - | 180 W/m² | - |
| 1777981822 | 15.56° C | 79% | 1019.2 hPa | 0 mm | - | 123 W/m² | - |
| 1777981519 | 15° C | 81% | 1019.1 hPa | 0 mm | - | 112 W/m² | - |
| 1777981215 | 14.44° C | 82% | 1019.1 hPa | 0 mm | - | 49 W/m² | - |
| 1777980912 | 14.44° C | 83% | 1019.1 hPa | 0 mm | - | 41 W/m² | - |
* Rain latest hour (hover to see other rain measurements)
** Current wind speed in m/s (hover to see current wind gust speed)